Home   Weather   Alexandria   Past weeks
Flag for Romania

Past Weather in Alexandria, Romania — Yesterday and Last 2 Weeks

Currently: 97 °F. Passing clouds. (Weather station: Bucharest / Imh, Romania). See more current weather

Past Weather in Alexandria — Graph

°F

Alexandria Temperature Yesterday

Maximum temperature yesterday: 102 °F (at 2:30 pm)
Minimum temperature yesterday: 73 °F (at 2:00 am)
Average temperature yesterday: 88 °F

High & Low Weather Summary for the Past Weeks

 TemperatureHumidityPressure
High104 °F (Jul 16, 2:00 pm)94% (Jul 4, 1:30 am)30.07 "Hg (Jul 4, 1:30 am)
Low61 °F (Jul 4, 5:30 am)16% (Jul 12, 2:00 pm)29.59 "Hg (Jul 3, 3:30 pm)
Average83 °F46%29.92 "Hg
* Reported Jul 3 11:30 am — Jul 18 11:00 am, Alexandria. Weather by CustomWeather, © 2024

Note: Actual official high and low records may vary slightly from our data, if they occured in-between our weather recording intervals... More about our weather records

Alexandria Weather History for the Previous 24 Hours

Scroll right to see more
 ConditionsComfort  
Time TempWeatherWind HumidityBarometerVisibility
11:00 am
Thu, Jul 18
93 °FPassing clouds.9 mph39%30.01 "HgN/A
10:00 am91 °FPassing clouds.9 mph38%30.01 "HgN/A
9:30 am90 °FPassing clouds.8 mph43%30.01 "HgN/A
9:00 am88 °FPassing clouds.7 mph46%30.01 "HgN/A
8:30 am82 °FPassing clouds.6 mph55%30.01 "HgN/A
8:00 am81 °FPassing clouds.5 mph58%30.01 "HgN/A
7:30 am81 °FPassing clouds.3 mph58%30.01 "HgN/A
7:00 am79 °FSunny.3 mph61%30.01 "Hg10 mi
6:30 am77 °FSunny.No wind65%29.98 "Hg10 mi
6:00 am77 °FSunny.3 mph65%29.98 "Hg10 mi
5:30 am77 °FPassing clouds.3 mph65%29.98 "HgN/A
5:00 am77 °FClear.5 mph65%29.98 "Hg10 mi
4:30 am79 °FClear.6 mph61%29.98 "Hg10 mi
4:00 am79 °FClear.5 mph61%29.98 "Hg10 mi
3:30 am79 °FPassing clouds.3 mph61%29.98 "HgN/A
3:00 am81 °FClear.5 mph58%29.98 "Hg10 mi
2:30 am81 °FClear.6 mph58%29.98 "Hg10 mi
2:00 am82 °FPassing clouds.6 mph55%29.98 "HgN/A
1:30 am81 °FClear.8 mph62%29.98 "Hg10 mi
1:00 am82 °FClear.8 mph55%29.98 "Hg10 mi
12:30 am84 °FClear.8 mph51%29.98 "Hg10 mi
12:00 am86 °FPassing clouds.12 mph49%29.98 "HgN/A
11:30 pm
Wed, Jul 17
88 °FClear.14 mph46%29.98 "Hg10 mi
11:00 pm86 °FClear.8 mph49%29.98 "Hg10 mi
10:30 pm86 °FClear.7 mph49%29.95 "Hg10 mi
10:00 pm90 °FClear.7 mph41%29.95 "Hg10 mi
9:30 pm91 °FClear.5 mph38%29.95 "Hg10 mi
9:00 pm93 °FClear.6 mph34%29.92 "Hg10 mi
8:30 pm93 °FSunny.5 mph34%29.92 "Hg10 mi
8:00 pm97 °FPassing clouds.7 mph30%29.92 "HgN/A
7:30 pm99 °FPassing clouds.9 mph27%29.92 "HgN/A
7:00 pm100 °FPassing clouds.5 mph25%29.92 "HgN/A
6:30 pm100 °FPassing clouds.6 mph27%29.92 "HgN/A
6:00 pm100 °FPassing clouds.6 mph27%29.92 "HgN/A
5:30 pm100 °FPassing clouds.7 mph25%29.92 "HgN/A
5:00 pm102 °FPassing clouds.5 mph26%29.92 "HgN/A
4:00 pm100 °FScattered clouds.7 mph29%29.92 "HgN/A
3:30 pm95 °FThundershowers. Scattered clouds.14 mph34%29.92 "HgN/A
3:00 pm102 °FThundershowers. Scattered clouds.10 mph26%29.92 "HgN/A
2:30 pm102 °FPassing clouds.7 mph24%29.92 "HgN/A
2:00 pm100 °FPassing clouds.3 mph29%29.95 "HgN/A
1:30 pm100 °FPassing clouds.6 mph29%29.95 "HgN/A
1:00 pm99 °FSunny.7 mph33%29.95 "Hg10 mi
12:30 pm99 °FPassing clouds.5 mph35%29.95 "Hg10 mi
12:00 pm97 °FSunny.3 mph39%29.95 "Hg10 mi
Weather by CustomWeather, © 2024

See weather overview